sensor_id;sensor_type;location;lat;lon;timestamp;pressure;altitude;pressure_sealevel;temperature;humidity
75656;BME280;64252;51.094;13.714;2023-04-01T00:01:10;98642.81;;;9.19;90.62
75656;BME280;64252;51.094;13.714;2023-04-01T00:03:39;98647.72;;;9.15;91.84
75656;BME280;64252;51.094;13.714;2023-04-01T00:06:04;98643.75;;;9.12;91.41
75656;BME280;64252;51.094;13.714;2023-04-01T00:08:30;98638.47;;;9.14;90.70
75656;BME280;64252;51.094;13.714;2023-04-01T00:10:55;98642.09;;;9.15;91.22
75656;BME280;64252;51.094;13.714;2023-04-01T00:13:24;98634.38;;;9.19;90.60
75656;BME280;64252;51.094;13.714;2023-04-01T00:15:51;98635.13;;;9.23;89.90
75656;BME280;64252;51.094;13.714;2023-04-01T00:18:16;98639.66;;;9.17;91.21
75656;BME280;64252;51.094;13.714;2023-04-01T00:20:46;98635.22;;;9.16;91.02
75656;BME280;64252;51.094;13.714;2023-04-01T00:23:12;98631.19;;;9.17;91.00
75656;BME280;64252;51.094;13.714;2023-04-01T00:25:38;98640.28;;;9.28;89.98
75656;BME280;64252;51.094;13.714;2023-04-01T00:28:03;98633.09;;;9.27;89.81
75656;BME280;64252;51.094;13.714;2023-04-01T00:30:29;98629.03;;;9.28;89.98
75656;BME280;64252;51.094;13.714;2023-04-01T00:32:54;98636.25;;;9.29;89.53
75656;BME280;64252;51.094;13.714;2023-04-01T00:35:20;98641.38;;;9.38;88.82
75656;BME280;64252;51.094;13.714;2023-04-01T00:37:46;98633.34;;;9.36;89.35
75656;BME280;64252;51.094;13.714;2023-04-01T00:40:28;98624.03;;;9.39;89.67
75656;BME280;64252;51.094;13.714;2023-04-01T00:42:55;98641.00;;;9.36;89.07
75656;BME280;64252;51.094;13.714;2023-04-01T00:45:39;98639.34;;;9.38;88.87
75656;BME280;64252;51.094;13.714;2023-04-01T00:48:09;98640.56;;;9.37;88.71
75656;BME280;64252;51.094;13.714;2023-04-01T00:50:37;98649.81;;;9.38;89.13
75656;BME280;64252;51.094;13.714;2023-04-01T00:53:05;98639.00;;;9.36;88.82
75656;BME280;64252;51.094;13.714;2023-04-01T00:55:35;98641.06;;;9.32;89.68
75656;BME280;64252;51.094;13.714;2023-04-01T00:58:03;98634.63;;;9.32;89.45
75656;BME280;64252;51.094;13.714;2023-04-01T01:00:30;98637.84;;;9.30;90.45
75656;BME280;64252;51.094;13.714;2023-04-01T01:02:56;98640.75;;;9.23;90.88
75656;BME280;64252;51.094;13.714;2023-04-01T01:06:11;98636.72;;;9.24;90.73
75656;BME280;64252;51.094;13.714;2023-04-01T01:10:52;98634.38;;;9.19;90.06
75656;BME280;64252;51.094;13.714;2023-04-01T01:13:29;98629.88;;;9.25;90.28
75656;BME280;64252;51.094;13.714;2023-04-01T01:16:06;98639.53;;;9.24;89.96
75656;BME280;64252;51.094;13.714;2023-04-01T01:21:30;98637.00;;;9.33;88.69
75656;BME280;64252;51.094;13.714;2023-04-01T01:37:50;98627.28;;;9.38;88.86
75656;BME280;64252;51.094;13.714;2023-04-01T01:40:17;98623.31;;;9.35;88.37
75656;BME280;64252;51.094;13.714;2023-04-01T01:42:48;98632.97;;;9.34;88.58
75656;BME280;64252;51.094;13.714;2023-04-01T01:45:18;98630.63;;;9.29;87.94
75656;BME280;64252;51.094;13.714;2023-04-01T01:47:46;98630.69;;;9.25;88.86
75656;BME280;64252;51.094;13.714;2023-04-01T01:50:14;98640.28;;;9.28;88.63
75656;BME280;64252;51.094;13.714;2023-04-01T01:52:41;98636.31;;;9.25;88.84
75656;BME280;64252;51.094;13.714;2023-04-01T01:55:29;98642.75;;;9.26;88.31
75656;BME280;64252;51.094;13.714;2023-04-01T01:58:04;98634.66;;;9.28;88.34
75656;BME280;64252;51.094;13.714;2023-04-01T02:00:33;98639.47;;;9.31;87.67
75656;BME280;64252;51.094;13.714;2023-04-01T02:03:00;98639.88;;;9.30;88.12
75656;BME280;64252;51.094;13.714;2023-04-01T02:05:28;98638.72;;;9.27;87.92
75656;BME280;64252;51.094;13.714;2023-04-01T02:10:37;98645.50;;;9.30;87.77
75656;BME280;64252;51.094;13.714;2023-04-01T02:13:12;98639.06;;;9.29;87.90
75656;BME280;64252;51.094;13.714;2023-04-01T02:15:46;98641.47;;;9.31;87.51
75656;BME280;64252;51.094;13.714;2023-04-01T02:18:14;98637.84;;;9.30;87.79
75656;BME280;64252;51.094;13.714;2023-04-01T02:20:41;98641.06;;;9.32;87.01
75656;BME280;64252;51.094;13.714;2023-04-01T02:23:08;98637.00;;;9.33;87.73
75656;BME280;64252;51.094;13.714;2023-04-01T02:25:37;98638.25;;;9.32;86.99
75656;BME280;64252;51.094;13.714;2023-04-01T02:28:05;98642.63;;;9.33;87.45
75656;BME280;64252;51.094;13.714;2023-04-01T02:30:34;98635.44;;;9.32;86.98
75656;BME280;64252;51.094;13.714;2023-04-01T02:33:01;98639.41;;;9.35;87.19
75656;BME280;64252;51.094;13.714;2023-04-01T02:35:29;98640.22;;;9.35;86.69
75656;BME280;64252;51.094;13.714;2023-04-01T02:37:55;98645.78;;;9.39;86.76
75656;BME280;64252;51.094;13.714;2023-04-01T02:40:21;98657.84;;;9.39;86.77
75656;BME280;64252;51.094;13.714;2023-04-01T02:42:47;98644.19;;;9.38;86.37
75656;BME280;64252;51.094;13.714;2023-04-01T02:45:13;98647.44;;;9.36;86.52
75656;BME280;64252;51.094;13.714;2023-04-01T02:47:40;98646.63;;;9.36;87.02
75656;BME280;64252;51.094;13.714;2023-04-01T02:50:07;98651.47;;;9.35;87.28
75656;BME280;64252;51.094;13.714;2023-04-01T02:52:33;98650.72;;;9.31;86.66
75656;BME280;64252;51.094;13.714;2023-04-01T02:55:00;98653.16;;;9.29;86.68
75656;BME280;64252;51.094;13.714;2023-04-01T02:57:26;98654.81;;;9.27;86.63
75656;BME280;64252;51.094;13.714;2023-04-01T02:59:52;98663.69;;;9.25;86.74
75656;BME280;64252;51.094;13.714;2023-04-01T03:02:17;98662.94;;;9.21;86.72
75656;BME280;64252;51.094;13.714;2023-04-01T03:04:43;98664.47;;;9.25;86.72
75656;BME280;64252;51.094;13.714;2023-04-01T03:07:10;98663.69;;;9.25;87.06
75656;BME280;64252;51.094;13.714;2023-04-01T03:09:37;98668.50;;;9.24;86.92
75656;BME280;64252;51.094;13.714;2023-04-01T03:12:02;98654.00;;;9.26;86.87
75656;BME280;64252;51.094;13.714;2023-04-01T03:14:30;98657.56;;;9.30;86.51
75656;BME280;64252;51.094;13.714;2023-04-01T03:16:55;98663.69;;;9.25;87.39
75656;BME280;64252;51.094;13.714;2023-04-01T03:19:24;98667.34;;;9.22;87.56
75656;BME280;64252;51.094;13.714;2023-04-01T03:21:50;98658.44;;;9.27;86.03
75656;BME280;64252;51.094;13.714;2023-04-01T03:24:15;98665.22;;;9.30;86.34
75656;BME280;64252;51.094;13.714;2023-04-01T03:26:41;98670.91;;;9.26;86.35
75656;BME280;64252;51.094;13.714;2023-04-01T03:29:07;98677.38;;;9.23;86.92
75656;BME280;64252;51.094;13.714;2023-04-01T03:31:32;98674.94;;;9.25;86.63
75656;BME280;64252;51.094;13.714;2023-04-01T03:33:58;98678.16;;;9.23;86.17
75656;BME280;64252;51.094;13.714;2023-04-01T03:36:23;98670.16;;;9.22;86.56
75656;BME280;64252;51.094;13.714;2023-04-01T03:38:49;98680.63;;;9.21;86.63
75656;BME280;64252;51.094;13.714;2023-04-01T03:41:23;98673.81;;;9.19;87.07
75656;BME280;64252;51.094;13.714;2023-04-01T03:43:49;98679.06;;;9.17;87.55
75656;BME280;64252;51.094;13.714;2023-04-01T03:46:19;98677.88;;;9.14;87.09
75656;BME280;64252;51.094;13.714;2023-04-01T03:48:46;98677.47;;;9.16;85.83
75656;BME280;64252;51.094;13.714;2023-04-01T03:51:12;98684.72;;;9.13;86.61
75656;BME280;64252;51.094;13.714;2023-04-01T03:53:37;98689.94;;;9.15;86.63
75656;BME280;64252;51.094;13.714;2023-04-01T03:56:08;98683.16;;;9.12;86.35
75656;BME280;64252;51.094;13.714;2023-04-01T03:58:35;98686.00;;;9.09;87.11
75656;BME280;64252;51.094;13.714;2023-04-01T04:01:03;98690.41;;;9.10;86.27
75656;BME280;64252;51.094;13.714;2023-04-01T04:03:30;98692.00;;;9.11;86.44
75656;BME280;64252;51.094;13.714;2023-04-01T04:05:56;98685.22;;;9.08;86.79
75656;BME280;64252;51.094;13.714;2023-04-01T04:08:22;98690.50;;;9.03;87.52
75656;BME280;64252;51.094;13.714;2023-04-01T04:10:55;98687.31;;;9.01;87.20
75656;BME280;64252;51.094;13.714;2023-04-01T04:13:21;98697.75;;;9.00;87.80
75656;BME280;64252;51.094;13.714;2023-04-01T04:15:54;98695.28;;;9.06;86.50
75656;BME280;64252;51.094;13.714;2023-04-01T04:18:20;98699.31;;;9.05;87.13
75656;BME280;64252;51.094;13.714;2023-04-01T04:20:45;98700.16;;;9.02;87.37
75656;BME280;64252;51.094;13.714;2023-04-01T04:23:14;98702.22;;;8.98;88.00
75656;BME280;64252;51.094;13.714;2023-04-01T04:25:41;98704.66;;;8.96;88.32
75656;BME280;64252;51.094;13.714;2023-04-01T04:28:06;98705.09;;;8.94;88.04
75656;BME280;64252;51.094;13.714;2023-04-01T04:30:33;98705.03;;;8.98;87.48
75656;BME280;64252;51.094;13.714;2023-04-01T04:32:59;98705.47;;;8.96;87.60
75656;BME280;64252;51.094;13.714;2023-04-01T04:35:26;98709.03;;;9.00;87.78
75656;BME280;64252;51.094;13.714;2023-04-01T04:37:51;98713.84;;;9.00;87.16
75656;BME280;64252;51.094;13.714;2023-04-01T04:40:17;98712.94;;;9.10;86.06
75656;BME280;64252;51.094;13.714;2023-04-01T04:42:43;98715.34;;;9.11;85.67
75656;BME280;64252;51.094;13.714;2023-04-01T04:45:12;98720.16;;;9.11;86.50
75656;BME280;64252;51.094;13.714;2023-04-01T04:47:42;98722.53;;;9.16;85.39
75656;BME280;64252;51.094;13.714;2023-04-01T04:50:08;98724.13;;;9.17;85.61
75656;BME280;64252;51.094;13.714;2023-04-01T04:52:37;98722.44;;;9.23;84.07
75656;BME280;64252;51.094;13.714;2023-04-01T04:55:03;98727.25;;;9.26;84.70
75656;BME280;64252;51.094;13.714;2023-04-01T04:57:28;98719.16;;;9.28;84.58
75656;BME280;64252;51.094;13.714;2023-04-01T04:59:56;98713.50;;;9.28;84.65
75656;BME280;64252;51.094;13.714;2023-04-01T05:02:37;98721.91;;;9.35;83.71
75656;BME280;64252;51.094;13.714;2023-04-01T05:05:03;98723.84;;;9.38;83.62
75656;BME280;64252;51.094;13.714;2023-04-01T05:07:29;98729.50;;;9.38;84.12
75656;BME280;64252;51.094;13.714;2023-04-01T05:09:55;98731.09;;;9.39;83.76
75656;BME280;64252;51.094;13.714;2023-04-01T05:12:21;98737.53;;;9.40;83.98
75656;BME280;64252;51.094;13.714;2023-04-01T05:18:13;98743.13;;;9.43;83.89
75656;BME280;64252;51.094;13.714;2023-04-01T05:20:46;98735.06;;;9.45;83.90
75656;BME280;64252;51.094;13.714;2023-04-01T05:23:11;98736.66;;;9.46;83.86
75656;BME280;64252;51.094;13.714;2023-04-01T05:25:38;98740.63;;;9.49;83.18
75656;BME280;64252;51.094;13.714;2023-04-01T05:28:04;98733.34;;;9.51;82.90
75656;BME280;64252;51.094;13.714;2023-04-01T05:30:29;98746.59;;;9.54;83.59
75656;BME280;64252;51.094;13.714;2023-04-01T05:33:10;98755.84;;;9.55;82.97
75656;BME280;64252;51.094;13.714;2023-04-01T05:35:36;98752.56;;;9.60;83.42
75656;BME280;64252;51.094;13.714;2023-04-01T05:38:03;98754.16;;;9.61;83.28
75656;BME280;64252;51.094;13.714;2023-04-01T05:40:28;98746.88;;;9.63;83.21
75656;BME280;64252;51.094;13.714;2023-04-01T05:42:54;98761.72;;;9.67;82.94
75656;BME280;64252;51.094;13.714;2023-04-01T05:45:20;98752.41;;;9.70;83.13
75656;BME280;64252;51.094;13.714;2023-04-01T05:48:15;98750.84;;;9.69;82.92
75656;BME280;64252;51.094;13.714;2023-04-01T05:50:41;98753.22;;;9.71;82.86
75656;BME280;64252;51.094;13.714;2023-04-01T05:53:08;98755.63;;;9.73;83.15
75656;BME280;64252;51.094;13.714;2023-04-01T05:55:35;98750.78;;;9.73;82.68
75656;BME280;64252;51.094;13.714;2023-04-01T05:58:02;98752.81;;;9.73;83.18
75656;BME280;64252;51.094;13.714;2023-04-01T06:00:29;98761.25;;;9.73;83.06
75656;BME280;64252;51.094;13.714;2023-04-01T06:03:00;98755.63;;;9.73;83.14
75656;BME280;64252;51.094;13.714;2023-04-01T06:05:29;98761.19;;;9.76;83.90
75656;BME280;64252;51.094;13.714;2023-04-01T06:07:59;98766.03;;;9.76;84.20
75656;BME280;64252;51.094;13.714;2023-04-01T06:11:46;98759.56;;;9.79;83.47
75656;BME280;64252;51.094;13.714;2023-04-01T06:13:46;98770.00;;;9.82;83.87
75656;BME280;64252;51.094;13.714;2023-04-01T06:20:12;98767.44;;;9.91;83.04
75656;BME280;64252;51.094;13.714;2023-04-01T06:25:53;98772.47;;;10.06;82.50
75656;BME280;64252;51.094;13.714;2023-04-01T06:34:26;98771.63;;;10.36;80.40
75656;BME280;64252;51.094;13.714;2023-04-01T06:56:42;98778.03;;;10.87;77.81
75656;BME280;64252;51.094;13.714;2023-04-01T06:59:30;98779.13;;;10.93;77.46
75656;BME280;64252;51.094;13.714;2023-04-01T07:02:16;98781.91;;;10.96;77.61
75656;BME280;64252;51.094;13.714;2023-04-01T07:04:48;98776.19;;;11.00;76.30
75656;BME280;64252;51.094;13.714;2023-04-01T07:07:24;98776.00;;;11.11;76.24
75656;BME280;64252;51.094;13.714;2023-04-01T07:09:59;98786.84;;;11.12;76.27
75656;BME280;64252;51.094;13.714;2023-04-01T07:15:23;98781.69;;;11.07;75.83
75656;BME280;64252;51.094;13.714;2023-04-01T07:18:00;98790.66;;;11.02;75.56
75656;BME280;64252;51.094;13.714;2023-04-01T07:20:31;98790.47;;;11.13;76.38
75656;BME280;64252;51.094;13.714;2023-04-01T07:23:04;98793.28;;;11.13;75.31
75656;BME280;64252;51.094;13.714;2023-04-01T07:25:44;98793.00;;;11.07;75.01
75656;BME280;64252;51.094;13.714;2023-04-01T07:28:32;98798.84;;;11.20;75.95
75656;BME280;64252;51.094;13.714;2023-04-01T07:31:23;98797.53;;;11.24;75.82
75656;BME280;64252;51.094;13.714;2023-04-01T07:36:53;98792.59;;;11.28;74.71
75656;BME280;64252;51.094;13.714;2023-04-01T07:42:15;98811.25;;;11.45;73.38
75656;BME280;64252;51.094;13.714;2023-04-01T07:48:12;98798.06;;;11.39;73.22
75656;BME280;64252;51.094;13.714;2023-04-01T07:50:50;98799.72;;;11.36;73.07
75656;BME280;64252;51.094;13.714;2023-04-01T07:53:36;98812.84;;;11.47;73.86
75656;BME280;64252;51.094;13.714;2023-04-01T07:56:26;98807.28;;;11.63;72.81
75656;BME280;64252;51.094;13.714;2023-04-01T08:04:54;98817.28;;;11.87;71.76
75656;BME280;64252;51.094;13.714;2023-04-01T08:07:25;98815.53;;;11.93;71.64
75656;BME280;64252;51.094;13.714;2023-04-01T08:16:20;98830.78;;;11.99;71.29
75656;BME280;64252;51.094;13.714;2023-04-01T08:19:26;98835.25;;;11.97;71.58
75656;BME280;64252;51.094;13.714;2023-04-01T08:22:02;98834.72;;;12.21;71.47
75656;BME280;64252;51.094;13.714;2023-04-01T08:24:38;98832.53;;;12.29;70.41
75656;BME280;64252;51.094;13.714;2023-04-01T08:27:28;98830.50;;;12.29;69.85
75656;BME280;64252;51.094;13.714;2023-04-01T08:29:59;98835.88;;;12.60;70.06
75656;BME280;64252;51.094;13.714;2023-04-01T08:32:34;98831.00;;;12.60;69.48
75656;BME280;64252;51.094;13.714;2023-04-01T08:37:39;98828.00;;;12.67;68.51
75656;BME280;64252;51.094;13.714;2023-04-01T09:02:38;98837.63;;;12.54;68.79
75656;BME280;64252;51.094;13.714;2023-04-01T09:05:37;98831.09;;;12.57;68.29
75656;BME280;64252;51.094;13.714;2023-04-01T09:08:28;98826.66;;;12.72;68.49
75656;BME280;64252;51.094;13.714;2023-04-01T09:11:12;98833.50;;;12.74;68.10
75656;BME280;64252;51.094;13.714;2023-04-01T09:30:32;98838.81;;;12.56;67.95
75656;BME280;64252;51.094;13.714;2023-04-01T09:44:51;98842.09;;;12.87;67.87
75656;BME280;64252;51.094;13.714;2023-04-01T09:53:21;98849.69;;;13.39;66.42
75656;BME280;64252;51.094;13.714;2023-04-01T10:01:57;98843.88;;;12.97;66.75
75656;BME280;64252;51.094;13.714;2023-04-01T10:10:42;98847.94;;;13.29;65.95
75656;BME280;64252;51.094;13.714;2023-04-01T10:22:04;98856.25;;;13.36;65.69
75656;BME280;64252;51.094;13.714;2023-04-01T10:27:49;98856.69;;;13.50;65.27
75656;BME280;64252;51.094;13.714;2023-04-01T10:34:10;98855.38;;;13.06;68.46
75656;BME280;64252;51.094;13.714;2023-04-01T10:51:01;98873.34;;;12.48;71.52
75656;BME280;64252;51.094;13.714;2023-04-01T10:59:36;98879.69;;;11.57;77.21
75656;BME280;64252;51.094;13.714;2023-04-01T11:07:12;98884.88;;;11.15;84.96
75656;BME280;64252;51.094;13.714;2023-04-01T11:17:41;98879.44;;;12.10;79.49
75656;BME280;64252;51.094;13.714;2023-04-01T11:23:30;98879.00;;;12.31;79.22
75656;BME280;64252;51.094;13.714;2023-04-01T11:35:59;98871.69;;;13.35;77.21
75656;BME280;64252;51.094;13.714;2023-04-01T11:48:43;98880.00;;;13.42;74.31
75656;BME280;64252;51.094;13.714;2023-04-01T12:02:37;98884.63;;;13.36;72.70
75656;BME280;64252;51.094;13.714;2023-04-01T12:05:20;98885.13;;;12.98;73.42
75656;BME280;64252;51.094;13.714;2023-04-01T12:07:59;98882.13;;;12.89;73.53
75656;BME280;64252;51.094;13.714;2023-04-01T12:21:49;98880.59;;;12.85;72.60
75656;BME280;64252;51.094;13.714;2023-04-01T12:27:17;98884.97;;;13.22;72.49
75656;BME280;64252;51.094;13.714;2023-04-01T12:30:00;98880.34;;;13.44;72.16
75656;BME280;64252;51.094;13.714;2023-04-01T12:35:20;98878.19;;;13.93;69.02
75656;BME280;64252;51.094;13.714;2023-04-01T12:40:39;98874.00;;;13.97;68.86
75656;BME280;64252;51.094;13.714;2023-04-01T12:54:48;98879.47;;;14.46;64.79
75656;BME280;64252;51.094;13.714;2023-04-01T13:00:08;98887.44;;;14.51;66.59
75656;BME280;64252;51.094;13.714;2023-04-01T13:19:40;98887.81;;;13.83;67.36
75656;BME280;64252;51.094;13.714;2023-04-01T13:22:27;98901.69;;;13.48;67.92
75656;BME280;64252;51.094;13.714;2023-04-01T13:25:06;98900.03;;;13.18;68.87
75656;BME280;64252;51.094;13.714;2023-04-01T13:27:47;98903.69;;;12.83;71.38
75656;BME280;64252;51.094;13.714;2023-04-01T13:30:21;98911.31;;;12.14;76.35
75656;BME280;64252;51.094;13.714;2023-04-01T13:41:45;98904.59;;;12.24;80.48
75656;BME280;64252;51.094;13.714;2023-04-01T13:44:19;98900.28;;;12.56;78.57
75656;BME280;64252;51.094;13.714;2023-04-01T13:50:51;98893.56;;;13.34;76.35
75656;BME280;64252;51.094;13.714;2023-04-01T14:04:22;98903.94;;;13.25;71.73
75656;BME280;64252;51.094;13.714;2023-04-01T14:10:00;98902.88;;;13.35;69.57
75656;BME280;64252;51.094;13.714;2023-04-01T14:13:00;98911.81;;;13.33;69.13
75656;BME280;64252;51.094;13.714;2023-04-01T14:18:50;98915.34;;;13.37;68.09
75656;BME280;64252;51.094;13.714;2023-04-01T14:27:09;98910.34;;;13.74;68.01
75656;BME280;64252;51.094;13.714;2023-04-01T14:32:40;98915.81;;;13.36;67.26
75656;BME280;64252;51.094;13.714;2023-04-01T14:42:51;98921.84;;;12.86;70.08
75656;BME280;64252;51.094;13.714;2023-04-01T14:50:53;98939.44;;;12.77;69.57
75656;BME280;64252;51.094;13.714;2023-04-01T14:53:33;98933.06;;;12.73;68.83
75656;BME280;64252;51.094;13.714;2023-04-01T14:56:02;98938.31;;;12.74;68.26
75656;BME280;64252;51.094;13.714;2023-04-01T14:58:43;98941.44;;;12.96;66.75
75656;BME280;64252;51.094;13.714;2023-04-01T15:07:18;98946.16;;;13.51;65.88
75656;BME280;64252;51.094;13.714;2023-04-01T15:10:20;98953.34;;;13.24;64.89
75656;BME280;64252;51.094;13.714;2023-04-01T15:21:16;98956.25;;;12.68;66.78
75656;BME280;64252;51.094;13.714;2023-04-01T15:24:00;98959.53;;;12.66;67.03
75656;BME280;64252;51.094;13.714;2023-04-01T15:32:58;98975.25;;;12.87;69.83
75656;BME280;64252;51.094;13.714;2023-04-01T15:35:37;98967.63;;;12.84;69.34
75656;BME280;64252;51.094;13.714;2023-04-01T15:38:11;98972.91;;;12.82;68.74
75656;BME280;64252;51.094;13.714;2023-04-01T15:43:37;98984.44;;;12.75;69.18
75656;BME280;64252;51.094;13.714;2023-04-01T15:53:13;98984.03;;;12.93;69.82
75656;BME280;64252;51.094;13.714;2023-04-01T15:55:48;98988.31;;;12.81;69.93
75656;BME280;64252;51.094;13.714;2023-04-01T16:01:55;98991.00;;;12.52;70.20
75656;BME280;64252;51.094;13.714;2023-04-01T16:05:00;98997.38;;;12.37;71.23
75656;BME280;64252;51.094;13.714;2023-04-01T16:10:17;98999.97;;;12.27;71.27
75656;BME280;64252;51.094;13.714;2023-04-01T16:13:14;99003.09;;;12.13;72.10
75656;BME280;64252;51.094;13.714;2023-04-01T16:21:52;99011.22;;;11.88;73.33
75656;BME280;64252;51.094;13.714;2023-04-01T16:27:18;99014.94;;;11.85;74.17
75656;BME280;64252;51.094;13.714;2023-04-01T16:29:50;99012.94;;;11.82;74.19
75656;BME280;64252;51.094;13.714;2023-04-01T16:40:58;99026.56;;;11.64;74.22
75656;BME280;64252;51.094;13.714;2023-04-01T16:49:00;99044.56;;;11.50;76.48
75656;BME280;64252;51.094;13.714;2023-04-01T16:51:54;99047.06;;;11.44;76.54
75656;BME280;64252;51.094;13.714;2023-04-01T17:02:10;99064.63;;;11.32;76.96
75656;BME280;64252;51.094;13.714;2023-04-01T17:04:44;99058.22;;;11.28;77.49
75656;BME280;64252;51.094;13.714;2023-04-01T17:16:14;99080.19;;;11.17;77.58
75656;BME280;64252;51.094;13.714;2023-04-01T17:24:51;99083.66;;;10.98;80.68
75656;BME280;64252;51.094;13.714;2023-04-01T17:30:06;99097.69;;;10.75;83.66
75656;BME280;64252;51.094;13.714;2023-04-01T17:36:01;99101.88;;;10.60;83.40
75656;BME280;64252;51.094;13.714;2023-04-01T17:38:59;99099.56;;;10.54;84.91
75656;BME280;64252;51.094;13.714;2023-04-01T17:47:36;99120.63;;;10.43;85.48
75656;BME280;64252;51.094;13.714;2023-04-01T17:50:24;99124.66;;;10.42;86.44
75656;BME280;64252;51.094;13.714;2023-04-01T17:53:17;99118.25;;;10.38;85.77
75656;BME280;64252;51.094;13.714;2023-04-01T17:56:11;99125.09;;;10.40;85.52
75656;BME280;64252;51.094;13.714;2023-04-01T17:58:45;99126.69;;;10.41;85.89
75656;BME280;64252;51.094;13.714;2023-04-01T18:06:19;99129.09;;;10.43;86.80
75656;BME280;64252;51.094;13.714;2023-04-01T18:09:09;99132.78;;;10.36;87.83
75656;BME280;64252;51.094;13.714;2023-04-01T18:18:01;99147.81;;;10.26;86.38
75656;BME280;64252;51.094;13.714;2023-04-01T18:26:07;99150.66;;;10.26;88.01
75656;BME280;64252;51.094;13.714;2023-04-01T18:28:37;99147.38;;;10.28;88.35
75656;BME280;64252;51.094;13.714;2023-04-01T18:31:05;99152.22;;;10.27;87.81
75656;BME280;64252;51.094;13.714;2023-04-01T18:34:02;99164.31;;;10.28;86.80
75656;BME280;64252;51.094;13.714;2023-04-01T18:36:49;99169.16;;;10.27;86.98
75656;BME280;64252;51.094;13.714;2023-04-01T18:39:35;99164.34;;;10.24;88.02
75656;BME280;64252;51.094;13.714;2023-04-01T18:42:33;99163.59;;;10.20;88.90
75656;BME280;64252;51.094;13.714;2023-04-01T18:45:19;99172.50;;;10.08;90.08
75656;BME280;64252;51.094;13.714;2023-04-01T18:48:14;99177.78;;;10.06;89.36
75656;BME280;64252;51.094;13.714;2023-04-01T18:51:13;99173.75;;;10.03;89.08
75656;BME280;64252;51.094;13.714;2023-04-01T18:53:43;99179.00;;;10.05;89.57
75656;BME280;64252;51.094;13.714;2023-04-01T18:56:35;99187.84;;;10.07;88.43
75656;BME280;64252;51.094;13.714;2023-04-01T18:59:20;99188.69;;;10.00;89.97
75656;BME280;64252;51.094;13.714;2023-04-01T19:04:50;99195.88;;;10.12;87.82
75656;BME280;64252;51.094;13.714;2023-04-01T19:07:39;99197.84;;;10.19;85.63
75656;BME280;64252;51.094;13.714;2023-04-01T19:13:15;99202.59;;;10.29;86.33
75656;BME280;64252;51.094;13.714;2023-04-01T19:19:13;99204.69;;;10.18;87.50
75656;BME280;64252;51.094;13.714;2023-04-01T19:22:03;99207.94;;;10.16;89.10
75656;BME280;64252;51.094;13.714;2023-04-01T19:27:53;99219.72;;;10.00;89.43
75656;BME280;64252;51.094;13.714;2023-04-01T19:30:32;99210.53;;;9.93;91.15
75656;BME280;64252;51.094;13.714;2023-04-01T19:35:44;99221.03;;;9.85;91.08
75656;BME280;64252;51.094;13.714;2023-04-01T19:38:31;99228.31;;;9.83;91.19
75656;BME280;64252;51.094;13.714;2023-04-01T19:46:43;99232.75;;;9.77;91.85
75656;BME280;64252;51.094;13.714;2023-04-01T19:59:56;99257.38;;;9.65;94.59
75656;BME280;64252;51.094;13.714;2023-04-01T20:02:36;99257.00;;;9.63;94.34
75656;BME280;64252;51.094;13.714;2023-04-01T20:05:19;99270.69;;;9.61;94.13
75656;BME280;64252;51.094;13.714;2023-04-01T20:07:52;99263.47;;;9.60;95.06
75656;BME280;64252;51.094;13.714;2023-04-01T20:10:29;99273.53;;;9.58;94.92
75656;BME280;64252;51.094;13.714;2023-04-01T20:25:59;99298.91;;;9.54;96.00
75656;BME280;64252;51.094;13.714;2023-04-01T20:28:42;99296.13;;;9.51;96.14
75656;BME280;64252;51.094;13.714;2023-04-01T20:31:23;99299.34;;;9.49;96.67
75656;BME280;64252;51.094;13.714;2023-04-01T20:37:14;99300.94;;;9.50;96.47
75656;BME280;64252;51.094;13.714;2023-04-01T20:51:15;99310.56;;;9.56;96.26
75656;BME280;64252;51.094;13.714;2023-04-01T20:56:18;99324.66;;;9.56;96.63
75656;BME280;64252;51.094;13.714;2023-04-01T21:05:06;99329.91;;;9.54;96.79
75656;BME280;64252;51.094;13.714;2023-04-01T21:10:50;99330.72;;;9.58;96.69
75656;BME280;64252;51.094;13.714;2023-04-01T21:13:51;99339.56;;;9.60;95.61
75656;BME280;64252;51.094;13.714;2023-04-01T21:24:01;99356.53;;;9.39;96.86
75656;BME280;64252;51.094;13.714;2023-04-01T21:37:44;99372.69;;;8.89;99.74
75656;BME280;64252;51.094;13.714;2023-04-01T21:49:22;99392.78;;;8.66;100.00
75656;BME280;64252;51.094;13.714;2023-04-01T22:09:21;99403.97;;;8.34;100.00
75656;BME280;64252;51.094;13.714;2023-04-01T22:12:23;99407.59;;;8.31;100.00
75656;BME280;64252;51.094;13.714;2023-04-01T22:18:09;99413.63;;;8.30;100.00
75656;BME280;64252;51.094;13.714;2023-04-01T22:20:44;99422.41;;;8.25;100.00
75656;BME280;64252;51.094;13.714;2023-04-01T22:23:20;99426.84;;;8.22;100.00
75656;BME280;64252;51.094;13.714;2023-04-01T22:31:18;99430.41;;;8.16;100.00
75656;BME280;64252;51.094;13.714;2023-04-01T22:36:47;99452.09;;;8.12;100.00
75656;BME280;64252;51.094;13.714;2023-04-01T22:42:27;99448.47;;;8.11;100.00
75656;BME280;64252;51.094;13.714;2023-04-01T22:50:21;99462.09;;;7.99;100.00
75656;BME280;64252;51.094;13.714;2023-04-01T22:53:37;99464.47;;;7.97;100.00
75656;BME280;64252;51.094;13.714;2023-04-01T22:55:40;99458.47;;;7.94;100.00
75656;BME280;64252;51.094;13.714;2023-04-01T22:58:14;99462.03;;;7.91;100.00
75656;BME280;64252;51.094;13.714;2023-04-01T23:00:49;99473.69;;;7.93;100.00
75656;BME280;64252;51.094;13.714;2023-04-01T23:03:24;99468.06;;;7.90;100.00
75656;BME280;64252;51.094;13.714;2023-04-01T23:05:53;99476.88;;;7.88;100.00
75656;BME280;64252;51.094;13.714;2023-04-01T23:11:22;99497.00;;;7.90;100.00
75656;BME280;64252;51.094;13.714;2023-04-01T23:16:29;99502.56;;;7.83;100.00
75656;BME280;64252;51.094;13.714;2023-04-01T23:21:37;99511.72;;;7.73;100.00
75656;BME280;64252;51.094;13.714;2023-04-01T23:24:25;99516.13;;;7.67;100.00
75656;BME280;64252;51.094;13.714;2023-04-01T23:29:42;99512.41;;;7.56;100.00